Terminal Aerodrome Forecast
Issued by NWS

Home | Current Version | Previous Version | Text Only | Print | Product List | Glossary On
Versions: 1 2 3 4 5 6 7 8 9 10 11 12 13 14 15 16 17 18 19
000
FTUS43 KILX 301120
TAFBMI
TAF
KBMI 301120Z 3012/0112 26007KT P6SM SCT060
      TEMPO 3012/3013 4SM BR
     FM301500 28009KT P6SM SCT050
     FM301800 30012KT P6SM VCTS SCT050CB
     FM010100 36008KT P6SM SCT050
     FM010800 VRB05KT 3SM BR SKC=

USA.gov is the U.S. government's official web portal to all federal, state and local government web resources and services.